Time;durP1;ratioP1;P1;durP2;ratioP2;P2;SDS_P1;SDS_P2;PMS_P1;PMS_P2;Temp;Humidity;BMP_temperature;BMP_pressure;BME280_temperature;BME280_humidity;BME280_pressure;Samples;Min_cycle;Max_cycle;Signal;HPM_P1;HPM_P2
2024/01/16 00:00:23;;;;;;;11.97;7.07;;;;;;;1.21;100.00;97096.25;5084636;27;20117;-70
2024/01/16 00:02:48;;;;;;;12.93;7.73;;;;;;;1.18;100.00;97093.97;5118238;27;20047;-70
2024/01/16 00:05:14;;;;;;;14.77;7.90;;;;;;;1.18;100.00;97110.47;5116997;27;20042;-70
2024/01/16 00:07:41;;;;;;;11.80;7.10;;;;;;;1.18;100.00;97104.44;5117362;27;20045;-73
2024/01/16 00:10:11;;;;;;;12.93;8.17;;;;;;;1.30;100.00;97090.88;5101340;27;20057;-71
2024/01/16 00:12:37;;;;;;;11.73;7.43;;;;;;;1.18;100.00;97107.03;5100609;27;20050;-71
2024/01/16 00:15:05;;;;;;;12.57;7.90;;;;;;;1.19;100.00;97103.44;5117918;27;20364;-71
2024/01/16 00:17:31;;;;;;;12.70;7.47;;;;;;;1.18;100.00;97096.59;5117745;27;20142;-72
2024/01/16 00:20:00;;;;;;;10.93;7.13;;;;;;;1.17;100.00;97087.91;5100830;27;20047;-71
2024/01/16 00:22:27;;;;;;;11.70;7.57;;;;;;;1.20;100.00;97084.97;5085499;27;20066;-71
2024/01/16 00:24:53;;;;;;;13.10;7.73;;;;;;;1.16;100.00;97085.47;5102761;27;20090;-71
2024/01/16 00:27:19;;;;;;;11.93;7.23;;;;;;;1.13;100.00;97080.56;5068069;27;20104;-72
2024/01/16 00:29:45;;;;;;;12.60;7.57;;;;;;;1.18;100.00;97107.88;5085072;27;20039;-72
2024/01/16 00:32:15;;;;;;;12.77;7.30;;;;;;;1.18;100.00;97093.97;5101468;27;20066;-74
2024/01/16 00:34:42;;;;;;;11.60;7.15;;;;;;;1.23;100.00;97076.00;5135415;27;20035;-73
2024/01/16 00:37:08;;;;;;;10.80;7.33;;;;;;;1.17;100.00;97100.97;5117897;27;20375;-71
2024/01/16 00:39:35;;;;;;;12.43;7.33;;;;;;;1.17;100.00;97095.75;5134683;27;20092;-71
2024/01/16 00:42:01;;;;;;;12.43;7.50;;;;;;;1.22;100.00;97088.25;5117723;27;20851;-72
2024/01/16 00:44:28;;;;;;;10.67;7.13;;;;;;;1.16;100.00;97101.97;5101111;27;20402;-71
2024/01/16 00:46:53;;;;;;;13.37;8.30;;;;;;;1.16;100.00;97106.38;5100384;27;20057;-72
2024/01/16 00:49:19;;;;;;;11.43;7.47;;;;;;;1.15;100.00;97086.44;5115692;27;20054;-73
2024/01/16 00:51:45;;;;;;;11.30;7.03;;;;;;;1.16;100.00;97086.28;5115154;27;20039;-72
2024/01/16 00:54:11;;;;;;;11.40;7.00;;;;;;;1.15;100.00;97092.47;5098412;27;20575;-73
2024/01/16 00:56:37;;;;;;;11.97;7.40;;;;;;;1.10;100.00;97096.56;5097991;27;20076;-72
2024/01/16 00:59:03;;;;;;;11.57;7.00;;;;;;;1.16;100.00;97093.31;5098142;27;20039;-72
2024/01/16 01:01:29;;;;;;;11.73;7.47;;;;;;;1.13;100.00;97094.44;5080395;27;20079;-72
2024/01/16 01:03:56;;;;;;;12.27;7.33;;;;;;;1.15;100.00;97095.09;5096762;27;20035;-72
2024/01/16 01:06:22;;;;;;;11.80;7.17;;;;;;;1.07;100.00;97074.19;5131441;27;20038;-72
2024/01/16 01:08:48;;;;;;;11.17;7.33;;;;;;;1.08;100.00;97086.28;5114915;27;20050;-71
2024/01/16 01:11:13;;;;;;;11.73;7.10;;;;;;;1.11;100.00;97069.44;5080884;27;20043;-73
2024/01/16 01:13:39;;;;;;;10.23;6.50;;;;;;;1.11;100.00;97057.19;5115237;27;20474;-71
2024/01/16 01:16:05;;;;;;;10.40;7.00;;;;;;;1.14;100.00;97066.50;5114614;27;20512;-70
2024/01/16 01:18:31;;;;;;;10.13;6.37;;;;;;;1.11;100.00;97079.91;5132649;27;20057;-70
2024/01/16 01:20:56;;;;;;;10.27;6.27;;;;;;;1.11;100.00;97087.72;5116713;27;20110;-69
2024/01/16 01:23:22;;;;;;;9.10;6.13;;;;;;;1.11;100.00;97077.28;5133555;27;20141;-70
2024/01/16 01:25:48;;;;;;;11.87;6.73;;;;;;;1.08;100.00;97088.88;5133532;27;20100;-70
2024/01/16 01:28:15;;;;;;;11.93;6.70;;;;;;;1.21;100.00;97096.25;5133917;27;20098;-73
2024/01/16 01:30:41;;;;;;;8.77;6.13;;;;;;;1.11;100.00;97062.44;5117439;27;20490;-71
2024/01/16 01:33:09;;;;;;;8.90;5.83;;;;;;;1.13;100.00;97065.72;5117142;27;20070;-70
2024/01/16 01:35:36;;;;;;;9.53;6.23;;;;;;;1.07;100.00;97068.97;5133616;27;20081;-70
2024/01/16 01:38:02;;;;;;;9.67;6.13;;;;;;;1.12;100.00;97058.03;5100255;27;20050;-71
2024/01/16 01:40:28;;;;;;;10.77;6.30;;;;;;;1.20;100.00;97071.13;5134468;27;20043;-71
2024/01/16 01:42:54;;;;;;;10.50;6.57;;;;;;;1.09;100.00;97066.19;5099649;27;20532;-71
2024/01/16 01:45:21;;;;;;;10.50;6.17;;;;;;;1.12;100.00;97063.25;5099095;27;20050;-70
2024/01/16 01:47:47;;;;;;;9.43;5.87;;;;;;;1.14;100.00;97059.50;5134404;27;20095;-71
2024/01/16 01:50:13;;;;;;;9.20;6.07;;;;;;;1.20;100.00;97071.13;5099561;27;20054;-70
2024/01/16 01:52:41;;;;;;;9.33;5.57;;;;;;;1.18;100.00;97073.06;5100106;27;20170;-71
2024/01/16 01:55:11;;;;;;;9.60;5.87;;;;;;;1.26;100.00;97073.88;5116148;27;20099;-71
2024/01/16 01:57:37;;;;;;;9.25;6.13;;;;;;;1.17;100.00;97059.16;5116292;27;20046;-70
2024/01/16 02:00:04;;;;;;;8.97;5.93;;;;;;;1.14;100.00;97085.63;5116140;27;20184;-71
2024/01/16 02:02:42;;;;;;;12.67;6.27;;;;;;;1.21;100.00;97072.72;5133068;27;20035;-72
2024/01/16 02:05:07;;;;;;;10.73;6.20;;;;;;;1.14;100.00;97113.53;5098865;27;20478;-72
2024/01/16 02:07:33;;;;;;;9.83;6.50;;;;;;;1.13;100.00;97075.34;5133086;27;20050;-73
2024/01/16 02:10:00;;;;;;;9.90;5.70;;;;;;;1.14;100.00;97072.56;5116009;27;20150;-73
2024/01/16 02:12:26;;;;;;;9.30;6.10;;;;;;;1.10;100.00;97099.19;5098726;27;20038;-74
2024/01/16 02:14:51;;;;;;;8.47;5.77;;;;;;;1.05;100.00;97106.69;5098986;27;20379;-72
2024/01/16 02:17:17;;;;;;;10.47;6.40;;;;;;;1.05;100.00;97107.50;5098424;28;20046;-72
2024/01/16 02:19:43;;;;;;;10.80;6.40;;;;;;;1.09;100.00;97110.63;5115791;27;20047;-71
2024/01/16 02:22:13;;;;;;;10.07;6.60;;;;;;;1.18;100.00;97078.28;5132415;27;20059;-73
2024/01/16 02:24:39;;;;;;;10.53;6.20;;;;;;;1.06;100.00;97079.59;5115348;27;20455;-73
2024/01/16 02:27:05;;;;;;;10.33;6.23;;;;;;;1.05;100.00;97077.94;5098389;27;20341;-71
2024/01/16 02:29:30;;;;;;;10.00;6.23;;;;;;;1.02;100.00;97084.31;5115167;27;20039;-71
2024/01/16 02:31:56;;;;;;;10.13;5.70;;;;;;;1.03;100.00;97100.81;5115137;27;20047;-71
2024/01/16 02:34:22;;;;;;;9.47;5.90;;;;;;;1.02;100.00;97078.25;5098515;27;20047;-71
2024/01/16 02:36:47;;;;;;;9.00;6.03;;;;;;;1.01;100.00;97074.03;5098647;27;20035;-73
2024/01/16 02:39:13;;;;;;;10.17;6.53;;;;;;;1.00;100.00;97085.47;5098545;27;20051;-72
2024/01/16 02:41:39;;;;;;;10.23;6.50;;;;;;;1.01;100.00;97080.06;5098410;27;20426;-72
2024/01/16 02:44:05;;;;;;;7.97;5.73;;;;;;;0.96;100.00;97066.66;5117860;27;20046;-72
2024/01/16 02:46:32;;;;;;;9.20;6.13;;;;;;;1.02;100.00;97073.84;5098947;27;20070;-72
2024/01/16 02:48:58;;;;;;;9.47;5.60;;;;;;;1.03;100.00;97092.97;5097520;27;20051;-72
2024/01/16 02:51:23;;;;;;;10.80;6.27;;;;;;;1.04;100.00;97073.69;5114359;27;20570;-72
2024/01/16 02:53:49;;;;;;;9.13;5.90;;;;;;;1.03;100.00;97074.69;5097411;27;20172;-74
2024/01/16 02:56:15;;;;;;;11.13;6.80;;;;;;;0.95;100.00;97077.28;5097425;27;20450;-72
2024/01/16 02:58:41;;;;;;;10.10;6.60;;;;;;;1.00;100.00;97096.69;5114435;27;20046;-73
2024/01/16 03:01:07;;;;;;;11.33;6.80;;;;;;;0.98;100.00;97084.78;5096300;27;20481;-70
2024/01/16 03:03:34;;;;;;;12.37;6.93;;;;;;;1.11;100.00;97098.19;5079596;27;20047;-70
2024/01/16 03:06:00;;;;;;;11.17;6.60;;;;;;;0.97;100.00;97091.00;5063099;27;20083;-70
2024/01/16 03:08:26;;;;;;;11.57;6.57;;;;;;;1.01;100.00;97118.44;5113406;27;20055;-70
2024/01/16 03:10:52;;;;;;;8.90;5.77;;;;;;;1.04;100.00;97110.28;5113332;27;20050;-70
2024/01/16 03:13:18;;;;;;;8.77;5.37;;;;;;;1.02;100.00;97091.31;5096680;27;20039;-70
2024/01/16 03:15:43;;;;;;;7.67;5.77;;;;;;;1.03;100.00;97090.38;5096302;27;20539;-70
2024/01/16 03:18:09;;;;;;;10.73;6.53;;;;;;;0.97;100.00;97075.31;5079375;27;20039;-70
2024/01/16 03:20:35;;;;;;;10.33;6.27;;;;;;;1.03;100.00;97096.38;5126547;27;20050;-70
2024/01/16 03:23:00;;;;;;;9.83;6.30;;;;;;;1.05;100.00;97067.47;5114785;27;20461;-70
2024/01/16 03:25:26;;;;;;;9.93;6.80;;;;;;;1.08;100.00;97072.38;5097999;27;20050;-70
2024/01/16 03:27:52;;;;;;;9.43;6.10;;;;;;;1.08;100.00;97086.28;5114661;27;20054;-73
2024/01/16 03:30:19;;;;;;;11.67;6.73;;;;;;;1.08;100.00;97099.34;5097984;27;20103;-73
2024/01/16 03:32:46;;;;;;;10.70;6.23;;;;;;;1.09;100.00;97081.88;5097720;27;20043;-73
2024/01/16 03:35:13;;;;;;;10.07;6.70;;;;;;;1.03;100.00;97087.75;5079479;27;20047;-70
2024/01/16 03:37:40;;;;;;;12.43;7.60;;;;;;;1.01;100.00;97082.69;5114255;27;20054;-70
2024/01/16 03:40:09;;;;;;;12.17;7.47;;;;;;;0.98;100.00;97111.75;5096700;28;20035;-69
2024/01/16 03:42:35;;;;;;;12.40;7.30;;;;;;;0.90;100.00;97075.16;5097453;27;20101;-69
2024/01/16 03:45:01;;;;;;;13.40;7.17;;;;;;;0.87;100.00;97100.75;5113898;28;20508;-71
2024/01/16 03:47:28;;;;;;;12.03;7.57;;;;;;;0.81;100.00;97097.00;5113622;28;20462;-70
2024/01/16 03:49:54;;;;;;;11.93;7.03;;;;;;;0.79;100.00;97072.84;5079806;28;20045;-70
2024/01/16 03:52:20;;;;;;;11.60;7.40;;;;;;;0.76;100.00;97082.78;5113791;28;20046;-70
2024/01/16 03:54:46;;;;;;;12.67;7.30;;;;;;;0.72;100.00;97104.97;5114043;28;20475;-71
2024/01/16 03:57:12;;;;;;;11.63;7.27;;;;;;;0.69;100.00;97094.84;5114004;28;20039;-71
2024/01/16 03:59:38;;;;;;;13.23;7.73;;;;;;;0.71;100.00;97077.22;5096993;28;20046;-71
2024/01/16 04:02:04;;;;;;;12.87;7.37;;;;;;;0.70;100.00;97075.56;5080428;28;20111;-71
2024/01/16 04:04:30;;;;;;;11.33;7.27;;;;;;;0.70;100.00;97073.78;5080587;28;20038;-70
2024/01/16 04:06:55;;;;;;;11.67;7.23;;;;;;;0.71;100.00;97091.09;5114157;28;20494;-65
2024/01/16 04:09:22;;;;;;;11.23;7.20;;;;;;;0.75;100.00;97099.44;5075867;28;20071;-73
2024/01/16 04:11:52;;;;;;;11.63;7.30;;;;;;;0.78;100.00;97079.03;5059281;28;20273;-72
2024/01/16 04:14:21;;;;;;;11.80;7.03;;;;;;;0.75;100.00;97057.66;5060788;28;20047;-74
2024/01/16 04:16:47;;;;;;;10.87;7.33;;;;;;;0.67;100.00;97074.13;5060961;28;20411;-69
2024/01/16 04:19:13;;;;;;;12.87;7.43;;;;;;;0.68;100.00;97074.91;5059586;28;20055;-72
2024/01/16 04:21:39;;;;;;;11.47;6.90;;;;;;;0.65;100.00;97077.84;5059945;28;20104;-72
2024/01/16 04:24:05;;;;;;;12.10;7.60;;;;;;;0.64;100.00;97081.44;5043224;28;20047;-68
2024/01/16 04:26:31;;;;;;;12.13;7.20;;;;;;;0.59;100.00;97081.91;5042633;28;20118;-68
2024/01/16 04:28:59;;;;;;;14.07;7.83;;;;;;;0.61;100.00;97090.41;5058884;28;20067;-68
2024/01/16 04:31:25;;;;;;;10.97;6.83;;;;;;;0.57;100.00;97083.84;5075242;28;20043;-70
2024/01/16 04:33:51;;;;;;;11.47;6.90;;;;;;;0.54;100.00;97086.00;5058575;28;20264;-70
2024/01/16 04:36:18;;;;;;;11.83;7.67;;;;;;;0.63;100.00;97077.19;5041998;28;20043;-70
2024/01/16 04:38:44;;;;;;;12.17;7.23;;;;;;;0.52;100.00;97093.16;5058710;28;20109;-69
2024/01/16 04:41:15;;;;;;;14.30;7.80;;;;;;;0.51;100.00;97078.47;5034559;28;20044;-67
2024/01/16 04:43:41;;;;;;;12.40;7.10;;;;;;;0.47;100.00;97091.00;5042210;28;20147;-68
2024/01/16 04:46:12;;;;;;;14.37;8.00;;;;;;;0.43;100.00;97094.91;5092568;28;20058;-69
2024/01/16 04:48:38;;;;;;;14.03;7.63;;;;;;;0.42;100.00;97095.06;5026271;28;20051;-66
2024/01/16 04:51:04;;;;;;;12.13;6.80;;;;;;;0.42;100.00;97095.88;5039319;28;20040;-71
2024/01/16 04:53:30;;;;;;;15.30;8.40;;;;;;;0.39;100.00;97101.41;5039486;28;20059;-66
2024/01/16 04:55:55;;;;;;;13.83;7.40;;;;;;;0.34;100.00;97093.22;5055288;28;20075;-71
2024/01/16 04:58:21;;;;;;;14.40;7.57;;;;;;;0.37;100.00;97098.13;5088418;28;20048;-68
2024/01/16 05:00:46;;;;;;;13.23;7.93;;;;;;;0.37;100.00;97102.56;5040531;28;20044;-66
2024/01/16 05:03:12;;;;;;;16.70;8.00;;;;;;;0.40;100.00;97107.47;5040087;28;20486;-66
2024/01/16 05:05:39;;;;;;;12.87;7.23;;;;;;;0.34;100.00;97116.72;5053955;28;20048;-66
2024/01/16 05:08:05;;;;;;;15.30;7.57;;;;;;;0.31;100.00;97109.19;5039152;28;20048;-68
2024/01/16 05:10:30;;;;;;;13.60;7.73;;;;;;;0.27;100.00;97117.50;5055156;28;20376;-66
2024/01/16 05:12:56;;;;;;;13.27;7.53;;;;;;;0.26;100.00;97118.50;5070232;28;20060;-72
2024/01/16 05:15:22;;;;;;;13.73;8.00;;;;;;;0.23;100.00;97105.75;5070560;28;20206;-67
2024/01/16 05:17:48;;;;;;;13.43;8.30;;;;;;;0.27;100.00;97104.44;5045575;28;20142;-66
2024/01/16 05:20:13;;;;;;;14.20;8.17;;;;;;;0.23;100.00;97090.09;5095169;28;20035;-68
2024/01/16 05:22:39;;;;;;;14.77;7.77;;;;;;;0.25;100.00;97102.00;5106407;27;20091;-66
2024/01/16 05:25:07;;;;;;;14.73;8.07;;;;;;;0.25;100.00;97098.59;5115235;27;20130;-66
2024/01/16 05:27:33;;;;;;;14.67;8.13;;;;;;;0.25;100.00;97119.47;5110273;27;20039;-67
2024/01/16 05:30:00;;;;;;;14.37;7.77;;;;;;;0.22;100.00;97104.91;5067125;28;20052;-68
2024/01/16 05:32:26;;;;;;;12.70;6.93;;;;;;;0.25;100.00;97111.63;5066221;28;20051;-65
2024/01/16 05:34:52;;;;;;;11.13;6.60;;;;;;;0.21;100.00;97118.13;5051229;28;20062;-66
2024/01/16 05:37:19;;;;;;;12.80;7.17;;;;;;;0.26;100.00;97108.06;5049703;28;20028;-66
2024/01/16 05:39:45;;;;;;;11.57;7.10;;;;;;;0.26;100.00;97100.22;5065876;28;20130;-65
2024/01/16 05:42:11;;;;;;;14.57;7.83;;;;;;;0.36;100.00;97113.97;5067279;28;20138;-66
2024/01/16 05:44:38;;;;;;;11.13;6.67;;;;;;;0.43;100.00;97099.31;5082898;28;20039;-66
2024/01/16 05:47:04;;;;;;;12.37;7.00;;;;;;;0.32;100.00;97097.81;5043362;28;20031;-65
2024/01/16 05:49:30;;;;;;;12.80;7.47;;;;;;;0.35;100.00;97102.72;5111107;28;20126;-66
2024/01/16 05:51:56;;;;;;;12.53;6.80;;;;;;;0.41;100.00;97090.81;5087692;28;20227;-66
2024/01/16 05:54:21;;;;;;;10.60;6.10;;;;;;;0.43;100.00;97081.03;5101097;28;20422;-66
2024/01/16 05:56:47;;;;;;;10.47;6.27;;;;;;;0.47;100.00;97080.56;5083307;28;20047;-65
2024/01/16 05:59:13;;;;;;;9.37;5.63;;;;;;;0.48;100.00;97081.41;5083839;28;20047;-67
2024/01/16 06:01:39;;;;;;;11.10;6.37;;;;;;;0.54;100.00;97078.16;5070688;28;20044;-67
2024/01/16 06:04:04;;;;;;;11.60;6.50;;;;;;;0.56;100.00;97094.47;5045330;28;20499;-67
2024/01/16 06:06:30;;;;;;;13.40;6.97;;;;;;;0.51;100.00;97094.94;5095151;27;20047;-66
2024/01/16 06:08:57;;;;;;;12.00;6.77;;;;;;;0.51;100.00;97120.25;5101595;28;20051;-66
2024/01/16 06:11:34;;;;;;;10.53;6.40;;;;;;;0.67;100.00;97117.69;5111415;28;20040;-66
2024/01/16 06:14:01;;;;;;;10.33;6.40;;;;;;;0.54;100.00;97110.28;5094610;28;20039;-67
2024/01/16 06:16:26;;;;;;;12.43;6.80;;;;;;;0.56;100.00;97099.69;5115981;27;20403;-71
2024/01/16 06:18:52;;;;;;;12.10;6.93;;;;;;;0.56;100.00;97110.13;5098451;27;20387;-65
2024/01/16 06:21:19;;;;;;;12.63;6.73;;;;;;;0.54;100.00;97099.03;5097853;27;20043;-66
2024/01/16 06:23:45;;;;;;;13.67;6.60;;;;;;;0.52;100.00;97100.97;5115262;27;20074;-66
2024/01/16 06:26:12;;;;;;;11.33;6.90;;;;;;;0.47;100.00;97100.63;5114528;27;20066;-65
2024/01/16 06:28:37;;;;;;;10.00;6.33;;;;;;;0.42;100.00;97093.28;5098299;27;20487;-65
2024/01/16 06:31:03;;;;;;;10.87;6.87;;;;;;;0.50;100.00;97097.69;5132841;27;20050;-65
2024/01/16 06:33:29;;;;;;;12.67;7.30;;;;;;;0.47;100.00;97117.13;5097985;27;20042;-66
2024/01/16 06:35:55;;;;;;;11.80;7.13;;;;;;;0.51;100.00;97110.59;5114728;27;20122;-68
2024/01/16 06:38:21;;;;;;;11.87;7.20;;;;;;;0.49;100.00;97107.34;5131936;27;20039;-65
2024/01/16 06:40:48;;;;;;;14.00;7.07;;;;;;;0.48;100.00;97110.91;5096342;27;20034;-66
2024/01/16 06:43:15;;;;;;;11.30;6.73;;;;;;;0.54;100.00;97089.41;5131915;27;20041;-67
2024/01/16 06:45:47;;;;;;;12.80;7.90;;;;;;;0.56;100.00;97103.13;5097123;27;20468;-65
2024/01/16 06:48:12;;;;;;;14.17;7.33;;;;;;;0.44;100.00;97108.78;5114150;27;20443;-66
2024/01/16 06:50:38;;;;;;;14.23;8.30;;;;;;;0.44;100.00;97134.88;5113959;27;20035;-65
2024/01/16 06:53:04;;;;;;;14.10;7.60;;;;;;;0.40;100.00;97097.03;5131452;27;20099;-66
2024/01/16 06:55:33;;;;;;;14.53;8.20;;;;;;;0.41;100.00;97109.09;5130337;27;20050;-65
2024/01/16 06:57:58;;;;;;;16.27;8.17;;;;;;;0.38;100.00;97098.97;5113707;27;20470;-70
2024/01/16 07:00:26;;;;;;;12.70;7.20;;;;;;;0.38;100.00;97104.19;5096713;27;20049;-67
2024/01/16 07:02:57;;;;;;;15.03;8.60;;;;;;;0.43;100.00;97130.66;5112828;27;20393;-66
2024/01/16 07:05:23;;;;;;;14.40;8.33;;;;;;;0.34;100.00;97126.38;5021848;28;20068;-68
2024/01/16 07:07:50;;;;;;;15.37;8.50;;;;;;;0.35;100.00;97118.38;5038442;28;20143;-66
2024/01/16 07:10:21;;;;;;;13.87;8.10;;;;;;;0.29;100.00;97126.00;5020808;28;20053;-65
2024/01/16 07:12:51;;;;;;;15.17;8.10;;;;;;;0.30;100.00;97148.50;5016213;28;20129;-65
2024/01/16 07:15:18;;;;;;;14.13;7.97;;;;;;;0.29;100.00;97136.44;5053070;28;20052;-71
2024/01/16 07:17:44;;;;;;;15.40;8.17;;;;;;;0.25;100.00;97142.97;5036937;28;20043;-65
2024/01/16 07:20:10;;;;;;;14.43;8.90;;;;;;;0.25;100.00;97154.19;5038049;28;20472;-64
2024/01/16 07:22:42;;;;;;;13.90;8.03;;;;;;;0.29;100.00;97128.63;5053768;28;20052;-68
2024/01/16 07:25:09;;;;;;;14.93;8.73;;;;;;;0.26;100.00;97152.41;5036412;28;20045;-69
2024/01/16 07:27:35;;;;;;;17.53;9.10;;;;;;;0.15;100.00;97124.78;5055981;28;20077;-65
2024/01/16 07:30:01;;;;;;;14.27;8.33;;;;;;;0.16;100.00;97120.38;5037340;28;20035;-67
2024/01/16 07:32:31;;;;;;;16.08;8.25;;;;;;;0.10;100.00;97123.59;5004797;28;20048;-65
2024/01/16 07:34:57;;;;;;;16.13;8.57;;;;;;;0.12;100.00;97124.28;5088087;28;20063;-66
2024/01/16 07:37:23;;;;;;;17.87;9.27;;;;;;;0.12;100.00;97127.72;5074993;27;20039;-65
2024/01/16 07:39:49;;;;;;;15.90;8.00;;;;;;;0.09;100.00;97111.53;5112933;27;20031;-65
2024/01/16 07:42:14;;;;;;;13.23;7.73;;;;;;;0.08;100.00;97115.13;5112333;27;20053;-66
2024/01/16 07:44:40;;;;;;;13.40;6.83;;;;;;;0.07;100.00;97118.69;5076245;28;20058;-64
2024/01/16 07:47:06;;;;;;;16.50;8.33;;;;;;;0.03;100.00;97116.41;5095862;27;20040;-64
2024/01/16 07:49:32;;;;;;;14.30;7.77;;;;;;;-0.01;100.00;97128.13;5130757;27;20043;-64
2024/01/16 07:51:57;;;;;;;14.13;7.10;;;;;;;-0.01;100.00;97137.72;5128190;27;20463;-66
2024/01/16 07:54:24;;;;;;;10.43;6.23;;;;;;;0.06;100.00;97115.28;5113112;28;20042;-67
2024/01/16 07:56:49;;;;;;;12.63;6.87;;;;;;;0.12;100.00;97109.44;5097045;28;20179;-67
2024/01/16 07:59:16;;;;;;;10.80;6.77;;;;;;;0.13;100.00;97120.69;5096467;27;20455;-65
2024/01/16 08:01:41;;;;;;;11.83;6.73;;;;;;;0.17;100.00;97116.81;5093792;28;20027;-65
2024/01/16 08:04:07;;;;;;;10.73;6.00;;;;;;;0.17;100.00;97119.41;5112364;28;20814;-66
2024/01/16 08:06:34;;;;;;;10.03;6.00;;;;;;;0.18;100.00;97113.22;5096075;28;20424;-65
2024/01/16 08:09:01;;;;;;;14.67;6.90;;;;;;;0.16;100.00;97109.94;5130508;27;20066;-65
2024/01/16 08:11:27;;;;;;;11.37;6.70;;;;;;;0.17;100.00;97101.94;5129502;28;20475;-65
2024/01/16 08:13:53;;;;;;;10.80;6.50;;;;;;;0.18;100.00;97092.34;5095215;28;20038;-69
2024/01/16 08:16:21;;;;;;;9.43;6.20;;;;;;;0.23;100.00;97098.72;5113758;27;20047;-65
2024/01/16 08:18:47;;;;;;;12.13;6.60;;;;;;;0.24;100.00;97086.50;5114835;27;20108;-66
2024/01/16 08:21:13;;;;;;;13.33;6.93;;;;;;;0.23;100.00;97088.28;5133017;27;20045;-66
2024/01/16 08:23:39;;;;;;;11.30;6.60;;;;;;;0.29;100.00;97076.41;5116675;27;20054;-65
2024/01/16 08:26:05;;;;;;;12.50;6.70;;;;;;;0.26;100.00;97079.34;5114834;27;20043;-66
2024/01/16 08:28:31;;;;;;;11.87;6.47;;;;;;;0.31;100.00;97077.88;5116394;27;20488;-66
2024/01/16 08:30:58;;;;;;;9.57;5.50;;;;;;;0.32;100.00;97094.38;5065465;27;20043;-65
2024/01/16 08:33:26;;;;;;;10.27;6.10;;;;;;;0.31;100.00;97087.53;5133693;27;20051;-64
2024/01/16 08:35:53;;;;;;;11.97;6.33;;;;;;;0.35;100.00;97083.63;5115598;27;20054;-67
2024/01/16 08:38:20;;;;;;;9.70;5.83;;;;;;;0.34;100.00;97097.66;5080796;27;20038;-67
2024/01/16 08:40:45;;;;;;;10.20;5.97;;;;;;;0.32;100.00;97073.50;5132682;27;20390;-68
2024/01/16 08:43:12;;;;;;;11.80;6.23;;;;;;;0.37;100.00;97079.06;5098468;27;20031;-64
2024/01/16 08:45:38;;;;;;;9.30;5.30;;;;;;;0.38;100.00;97109.41;5098790;27;20035;-66
2024/01/16 08:48:04;;;;;;;10.03;5.90;;;;;;;0.38;100.00;97086.75;5127931;27;20039;-66
2024/01/16 08:50:30;;;;;;;10.63;5.70;;;;;;;0.44;100.00;97100.94;5133133;27;20095;-71
2024/01/16 08:52:57;;;;;;;9.67;5.73;;;;;;;0.32;100.00;97097.81;5100223;27;20059;-65
2024/01/16 08:55:25;;;;;;;11.23;6.67;;;;;;;0.26;100.00;97089.78;5123317;27;20600;-66
2024/01/16 08:57:52;;;;;;;10.07;6.03;;;;;;;0.28;100.00;97080.81;5049340;28;20045;-66
2024/01/16 09:00:19;;;;;;;10.63;5.97;;;;;;;0.29;100.00;97111.16;5017468;28;20055;-66
2024/01/16 09:02:45;;;;;;;10.30;5.87;;;;;;;0.24;100.00;97089.09;5041412;28;20060;-67
2024/01/16 09:05:13;;;;;;;11.67;6.13;;;;;;;0.25;100.00;97072.50;4994782;28;20081;-67
2024/01/16 09:07:40;;;;;;;10.13;6.10;;;;;;;0.24;100.00;97081.28;4978404;28;20045;-67
2024/01/16 09:10:08;;;;;;;9.20;5.50;;;;;;;0.27;100.00;97075.75;4994617;28;20054;-66
2024/01/16 09:12:35;;;;;;;11.77;6.60;;;;;;;0.38;100.00;97063.25;4960878;28;20049;-67
2024/01/16 09:15:00;;;;;;;10.07;6.03;;;;;;;0.31;100.00;97071.88;4994028;28;20073;-69
2024/01/16 09:17:28;;;;;;;11.13;5.87;;;;;;;0.41;100.00;97056.88;4992113;28;20124;-66
2024/01/16 09:19:54;;;;;;;10.37;5.93;;;;;;;0.43;100.00;97050.53;4963071;28;20513;-70
2024/01/16 09:22:24;;;;;;;9.87;5.53;;;;;;;0.48;100.00;97047.47;4979340;28;20053;-71
2024/01/16 09:24:53;;;;;;;13.53;6.57;;;;;;;0.48;100.00;97055.28;4964097;28;20140;-69
2024/01/16 09:27:19;;;;;;;9.67;5.73;;;;;;;0.50;100.00;97067.19;4993542;28;20126;-72
2024/01/16 09:29:45;;;;;;;8.77;5.33;;;;;;;0.45;100.00;97058.19;5044254;28;20059;-69
2024/01/16 09:32:11;;;;;;;10.63;5.40;;;;;;;0.51;100.00;97065.41;5016372;28;20044;-71
2024/01/16 09:34:44;;;;;;;8.73;5.60;;;;;;;0.59;100.00;97073.25;5044657;28;20105;-71
2024/01/16 09:37:12;;;;;;;9.80;5.70;;;;;;;0.45;100.00;97063.41;5076332;27;20050;-70
2024/01/16 09:39:38;;;;;;;8.40;5.20;;;;;;;0.45;100.00;97056.41;5093855;27;20096;-70
2024/01/16 09:42:04;;;;;;;10.07;5.80;;;;;;;0.47;100.00;97048.41;5097440;27;20039;-73
2024/01/16 09:44:35;;;;;;;9.63;5.10;;;;;;;0.55;100.00;97064.13;5117227;27;20390;-73
2024/01/16 09:47:07;;;;;;;10.30;5.80;;;;;;;0.51;100.00;97053.16;5098850;27;20039;-73
2024/01/16 09:49:34;;;;;;;10.33;5.90;;;;;;;0.47;100.00;97051.84;5114849;27;20042;-71
2024/01/16 09:52:01;;;;;;;9.90;5.47;;;;;;;0.39;100.00;97051.00;5114946;27;20043;-74
2024/01/16 09:54:27;;;;;;;11.10;5.90;;;;;;;0.29;100.00;97052.94;5096986;27;20479;-70
2024/01/16 09:56:55;;;;;;;10.93;6.07;;;;;;;0.45;100.00;97042.53;5080869;27;20039;-71
2024/01/16 09:59:22;;;;;;;8.27;5.37;;;;;;;0.42;100.00;97037.63;5079415;27;20031;-72
2024/01/16 10:01:55;;;;;;;9.87;5.80;;;;;;;0.60;100.00;97031.31;5080610;27;20040;-72
2024/01/16 10:04:23;;;;;;;9.00;4.87;;;;;;;0.43;100.00;97039.28;5096452;27;20791;-71
2024/01/16 10:06:54;;;;;;;8.53;5.10;;;;;;;0.57;100.00;97030.84;5094840;28;20387;-71
2024/01/16 10:09:23;;;;;;;9.47;5.50;;;;;;;0.61;100.00;97032.97;5040094;28;20047;-72
2024/01/16 10:12:10;;;;;;;9.37;5.23;;;;;;;0.64;100.00;97029.22;5039364;28;20083;-72
2024/01/16 10:14:40;;;;;;;8.33;4.97;;;;;;;0.65;100.00;97039.50;5040517;28;20216;-71
2024/01/16 10:17:17;;;;;;;8.17;5.20;;;;;;;0.68;100.00;97033.13;5035388;28;20056;-74
2024/01/16 10:19:56;;;;;;;;;;;;;;;0.78;100.00;97032.03;4965414;28;20045;-71
2024/01/16 10:22:29;;;;;;;9.37;5.00;;;;;;;0.71;100.00;97030.22;4993208;28;19921;-66
2024/01/16 10:25:06;;;;;;;8.88;4.32;;;;;;;0.77;100.00;97027.75;5002186;28;20700;-70
2024/01/16 10:27:36;;;;;;;7.40;4.90;;;;;;;0.70;100.00;97028.56;5033823;28;20073;-73
2024/01/16 10:30:04;;;;;;;8.63;4.93;;;;;;;0.66;100.00;97011.59;5016626;28;20467;-71
2024/01/16 10:32:37;;;;;;;8.32;5.20;;;;;;;0.81;100.00;97015.22;5018079;28;20044;-73
2024/01/16 10:35:08;;;;;;;8.73;5.30;;;;;;;0.86;100.00;97008.50;5000603;28;20064;-72
2024/01/16 10:37:43;;;;;;;6.82;4.38;;;;;;;0.93;100.00;97012.13;4978071;28;20069;-72
2024/01/16 10:40:14;;;;;;;8.97;5.37;;;;;;;0.87;100.00;97007.56;4978038;28;20153;-72
2024/01/16 10:42:46;;;;;;;7.30;4.23;;;;;;;0.98;100.00;96998.56;4974664;28;20148;-72
2024/01/16 10:45:22;;;;;;;7.80;4.97;;;;;;;1.01;100.00;96993.03;4974429;28;20065;-73
2024/01/16 10:47:50;;;;;;;7.70;4.67;;;;;;;0.98;100.00;96993.34;4974110;28;20054;-73
2024/01/16 10:50:23;;;;;;;7.77;4.90;;;;;;;1.02;100.00;96992.84;4973832;28;20145;-73
2024/01/16 10:52:50;;;;;;;6.67;4.17;;;;;;;1.01;100.00;96991.22;4942245;28;20069;-72
2024/01/16 10:55:23;;;;;;;8.60;5.13;;;;;;;1.08;100.00;96983.53;4987226;28;20409;-70
2024/01/16 10:57:52;;;;;;;7.97;5.30;;;;;;;0.93;100.00;96995.63;4992359;28;20157;-73
2024/01/16 11:00:21;;;;;;;8.57;5.17;;;;;;;0.84;100.00;96989.59;4993168;28;20049;-72
2024/01/16 11:03:15;;;;;;;7.93;5.27;;;;;;;0.97;100.00;96987.28;4976256;28;20068;-71
2024/01/16 11:05:43;;;;;;;8.03;5.10;;;;;;;0.74;100.00;96986.28;4942130;28;20144;-73
2024/01/16 11:08:09;;;;;;;9.67;5.60;;;;;;;0.74;100.00;96982.88;4935541;28;20141;-70
2024/01/16 11:10:39;;;;;;;7.10;4.90;;;;;;;0.74;100.00;96985.50;4982090;28;20041;-72
2024/01/16 11:13:07;;;;;;;7.77;5.27;;;;;;;0.71;100.00;96980.59;5011433;28;20132;-75
2024/01/16 11:15:42;;;;;;;9.87;5.30;;;;;;;0.72;100.00;96984.84;5008703;28;20086;-69
2024/01/16 11:18:39;;;;;;;10.23;5.67;;;;;;;0.60;100.00;96986.94;4997619;28;20148;-72
2024/01/16 11:21:15;;;;;;;7.80;5.23;;;;;;;0.68;100.00;96980.91;4977503;28;20054;-71
2024/01/16 11:23:41;;;;;;;8.13;5.00;;;;;;;0.55;100.00;96991.84;4977303;28;20057;-73
2024/01/16 11:26:26;;;;;;;10.43;5.40;;;;;;;0.68;100.00;96976.50;4976446;28;20091;-74